createdAt,value
2023-03-19T00:04:46.182Z,54.40
2023-03-19T00:07:13.878Z,54.50
2023-03-19T00:12:08.658Z,54.50
2023-03-19T00:14:35.688Z,54.40
2023-03-19T00:21:57.339Z,54.60
2023-03-19T00:24:24.813Z,54.50
2023-03-19T00:26:51.809Z,54.60
2023-03-19T00:31:46.455Z,54.90
2023-03-19T00:34:14.251Z,54.90
2023-03-19T00:41:36.251Z,54.90
2023-03-19T00:48:58.945Z,55.10
2023-03-19T00:56:21.291Z,55.40
2023-03-19T01:01:17.837Z,55.40
2023-03-19T01:03:46.198Z,55.40
2023-03-19T01:06:13.652Z,55.40
2023-03-19T01:11:14.621Z,55.60
2023-03-19T01:13:42.279Z,55.70
2023-03-19T01:16:10.422Z,55.70
2023-03-19T01:21:06.314Z,55.80
2023-03-19T01:23:36.300Z,55.80
2023-03-19T01:26:03.245Z,55.90
2023-03-19T01:31:02.895Z,55.90
2023-03-19T01:43:58.962Z,56.20
2023-03-19T01:46:39.748Z,56.20
2023-03-19T01:49:13.923Z,56.10
2023-03-19T01:51:46.542Z,56.10
2023-03-19T01:54:32.935Z,56.20
2023-03-19T02:02:47.526Z,56.20
2023-03-19T02:05:35.867Z,56.30
2023-03-19T02:08:08.999Z,56.30
2023-03-19T02:10:36.766Z,56.40
2023-03-19T02:17:58.985Z,56.50
2023-03-19T02:20:32.274Z,56.60
2023-03-19T02:23:23.582Z,56.60
2023-03-19T02:25:59.041Z,56.70
2023-03-19T02:28:26.450Z,56.70
2023-03-19T02:35:51.996Z,57.00
2023-03-19T02:38:22.464Z,57.00
2023-03-19T02:41:01.673Z,57.20
2023-03-19T02:48:24.923Z,57.50
2023-03-19T03:00:42.598Z,57.30
2023-03-19T03:03:09.490Z,57.40
2023-03-19T03:08:04.703Z,57.40
2023-03-19T03:10:33.161Z,57.40
2023-03-19T03:13:01.270Z,57.40
2023-03-19T03:20:24.772Z,57.70
2023-03-19T03:22:53.642Z,57.70
2023-03-19T03:30:16.247Z,57.90
2023-03-19T03:32:43.870Z,57.80
2023-03-19T03:40:08.085Z,57.90
2023-03-19T03:42:37.391Z,57.90
2023-03-19T03:45:07.366Z,58.00
2023-03-19T03:47:34.457Z,58.10
2023-03-19T03:54:58.740Z,58.20
2023-03-19T03:57:27.555Z,58.30
2023-03-19T04:09:53.484Z,58.50
2023-03-19T04:17:15.646Z,58.70
2023-03-19T04:27:07.505Z,58.70
2023-03-19T04:36:58.884Z,58.60
2023-03-19T04:39:26.423Z,58.60
2023-03-19T04:41:53.362Z,58.70
2023-03-19T04:44:31.078Z,58.70
2023-03-19T04:59:24.476Z,58.50
2023-03-19T05:06:53.986Z,58.50
2023-03-19T05:09:20.827Z,58.50
2023-03-19T05:17:03.354Z,58.30
2023-03-19T05:19:40.727Z,58.20
2023-03-19T05:38:16.210Z,57.90
2023-03-19T05:43:23.944Z,57.80
2023-03-19T05:45:52.932Z,57.70
2023-03-19T05:56:13.143Z,57.60
2023-03-19T06:03:52.620Z,57.60
2023-03-19T06:11:45.400Z,57.50
2023-03-19T06:19:58.275Z,57.30
2023-03-19T06:42:18.619Z,57.80
2023-03-19T06:52:09.510Z,57.80
2023-03-19T06:59:34.089Z,57.80
2023-03-19T07:04:32.753Z,57.90
2023-03-19T07:09:27.560Z,57.90
2023-03-19T07:24:11.606Z,57.40
2023-03-19T07:26:38.479Z,57.40
2023-03-19T07:36:28.056Z,57.20
2023-03-19T07:41:22.165Z,56.90
2023-03-19T07:46:17.218Z,56.80
2023-03-19T07:51:11.626Z,56.60
2023-03-19T07:56:06.469Z,56.80
2023-03-19T08:01:00.665Z,56.60
2023-03-19T08:03:27.455Z,56.60
2023-03-19T08:18:12.468Z,56.10
2023-03-19T08:45:15.412Z,55.50
2023-03-19T08:47:43.190Z,55.50
2023-03-19T08:50:11.482Z,55.50
2023-03-19T08:52:38.679Z,55.70
2023-03-19T08:55:06.196Z,55.80
2023-03-19T08:57:33.378Z,55.70
2023-03-19T09:04:55.758Z,55.50
2023-03-19T09:07:22.770Z,55.60
2023-03-19T09:09:49.654Z,55.60
2023-03-19T09:12:17.609Z,55.60
2023-03-19T09:14:44.538Z,55.60
2023-03-19T09:39:23.622Z,55.00
2023-03-19T09:42:23.188Z,54.70
2023-03-19T09:44:53.294Z,54.70
2023-03-19T09:47:35.449Z,54.40
2023-03-19T09:50:24.185Z,53.30
2023-03-19T09:53:41.751Z,54.20
2023-03-19T09:56:14.718Z,54.00
2023-03-19T10:01:27.464Z,53.80
2023-03-19T10:04:07.225Z,53.80
2023-03-19T10:06:35.645Z,53.60
2023-03-19T10:09:40.277Z,53.40
2023-03-19T10:12:44.262Z,53.40
2023-03-19T10:15:30.336Z,53.70
2023-03-19T10:18:12.316Z,53.80
2023-03-19T10:21:05.831Z,53.70
2023-03-19T10:23:44.709Z,53.70
2023-03-19T10:26:21.675Z,53.80
2023-03-19T10:29:02.742Z,53.70
2023-03-19T10:31:45.606Z,53.60
2023-03-19T10:34:24.255Z,53.40
2023-03-19T10:37:03.708Z,53.30
2023-03-19T10:39:36.754Z,53.20
2023-03-19T10:42:31.969Z,53.10
2023-03-19T10:45:28.158Z,53.20
2023-03-19T10:47:57.292Z,53.10
2023-03-19T10:50:52.973Z,52.80
2023-03-19T10:55:54.018Z,52.80
2023-03-19T10:58:26.090Z,52.60
2023-03-19T11:01:10.906Z,52.40
2023-03-19T11:03:40.855Z,52.40
2023-03-19T11:06:17.692Z,52.20
2023-03-19T11:08:56.178Z,52.00
2023-03-19T11:11:42.505Z,53.60
2023-03-19T11:14:22.250Z,51.40
2023-03-19T11:17:04.729Z,51.20
2023-03-19T11:19:38.962Z,50.90
2023-03-19T11:22:06.446Z,50.60
2023-03-19T11:24:36.345Z,50.00
2023-03-19T11:27:03.480Z,50.00
2023-03-19T11:32:22.643Z,49.50
2023-03-19T11:35:03.162Z,49.40
2023-03-19T11:38:00.737Z,49.30
2023-03-19T11:41:02.570Z,49.10
2023-03-19T11:43:50.402Z,49.00
2023-03-19T11:46:39.346Z,49.20
2023-03-19T11:49:21.760Z,49.20
2023-03-19T11:52:05.488Z,49.10
2023-03-19T11:54:32.269Z,49.00
2023-03-19T11:57:18.157Z,48.90
2023-03-19T12:00:01.212Z,49.00
2023-03-19T12:02:51.557Z,48.80
2023-03-19T12:05:27.541Z,48.80
2023-03-19T12:08:00.420Z,48.80
2023-03-19T12:10:51.055Z,46.80
2023-03-19T12:13:51.428Z,48.50
2023-03-19T12:16:46.191Z,48.50
2023-03-19T12:19:46.000Z,49.00
2023-03-19T12:22:27.870Z,49.00
2023-03-19T12:25:00.924Z,49.10
2023-03-19T12:27:41.599Z,49.00
2023-03-19T12:30:30.712Z,48.70
2023-03-19T12:33:10.887Z,48.20
2023-03-19T12:35:40.828Z,47.90
2023-03-19T12:38:26.818Z,48.00
2023-03-19T12:41:03.623Z,48.30
2023-03-19T12:44:12.298Z,48.50
2023-03-19T12:47:02.289Z,49.10
2023-03-19T12:49:47.605Z,49.30
2023-03-19T12:54:45.902Z,49.60
2023-03-19T12:57:56.493Z,49.80
2023-03-19T13:00:38.832Z,49.80
2023-03-19T13:05:41.637Z,49.90
2023-03-19T13:08:19.147Z,50.30
2023-03-19T13:10:46.102Z,50.70
2023-03-19T13:13:31.055Z,50.80
2023-03-19T13:16:43.578Z,51.00
2023-03-19T13:19:30.742Z,51.10
2023-03-19T13:22:04.328Z,51.20
2023-03-19T13:24:38.422Z,51.30
2023-03-19T13:27:09.703Z,51.40
2023-03-19T13:29:38.898Z,51.50
2023-03-19T13:32:42.301Z,51.60
2023-03-19T13:35:37.172Z,51.70
2023-03-19T13:38:24.617Z,52.10
2023-03-19T13:40:59.446Z,52.30
2023-03-19T13:43:29.447Z,52.40
2023-03-19T13:46:39.582Z,50.50
2023-03-19T13:49:10.858Z,52.60
2023-03-19T13:57:01.630Z,53.20
2023-03-19T13:59:41.134Z,53.30
2023-03-19T14:02:24.046Z,53.40
2023-03-19T14:04:58.682Z,51.80
2023-03-19T14:07:30.361Z,54.00
2023-03-19T14:09:57.569Z,54.10
2023-03-19T14:12:32.628Z,54.30
2023-03-19T14:15:08.302Z,54.50
2023-03-19T14:17:56.563Z,54.80
2023-03-19T14:20:37.639Z,55.10
2023-03-19T14:23:11.371Z,55.60
2023-03-19T14:26:09.604Z,55.90
2023-03-19T14:28:51.262Z,56.20
2023-03-19T14:31:33.189Z,56.60
2023-03-19T14:34:26.024Z,57.20
2023-03-19T14:37:08.476Z,57.70
2023-03-19T14:39:47.799Z,58.20
2023-03-19T14:42:39.078Z,58.40
2023-03-19T14:45:24.779Z,58.70
2023-03-19T14:48:32.009Z,59.10
2023-03-19T14:51:17.093Z,59.50
2023-03-19T14:53:46.954Z,60.00
2023-03-19T14:56:16.855Z,60.50
2023-03-19T14:58:58.325Z,60.60
2023-03-19T15:01:27.142Z,60.80
2023-03-19T15:04:01.071Z,60.90
2023-03-19T15:06:33.770Z,61.20
2023-03-19T15:12:07.914Z,62.30
2023-03-19T15:14:54.814Z,61.30
2023-03-19T15:17:32.455Z,60.10
2023-03-19T15:20:02.001Z,59.40
2023-03-19T15:22:34.406Z,58.90
2023-03-19T15:25:10.573Z,58.60
2023-03-19T15:27:37.957Z,58.20
2023-03-19T15:30:21.541Z,58.10
2023-03-19T15:33:02.933Z,57.60
2023-03-19T15:35:36.602Z,55.40
2023-03-19T15:38:10.767Z,57.40
2023-03-19T15:40:38.994Z,57.40
2023-03-19T15:43:06.147Z,57.50
2023-03-19T15:45:34.425Z,56.70
2023-03-19T15:48:06.718Z,57.40
2023-03-19T15:50:37.318Z,56.80
2023-03-19T15:53:10.674Z,55.50
2023-03-19T15:55:38.163Z,55.00
2023-03-19T15:58:12.445Z,55.10
2023-03-19T16:00:41.365Z,55.30
2023-03-19T16:03:33.051Z,55.00
2023-03-19T16:06:03.527Z,54.80
2023-03-19T16:08:31.511Z,55.30
2023-03-19T16:11:16.545Z,55.40
2023-03-19T16:13:54.542Z,54.50
2023-03-19T16:16:23.841Z,54.20
2023-03-19T16:18:53.477Z,54.50
2023-03-19T16:21:28.492Z,53.70
2023-03-19T16:23:59.434Z,53.20
2023-03-19T16:26:46.694Z,53.30
2023-03-19T16:29:59.317Z,53.50
2023-03-19T16:32:28.820Z,51.30
2023-03-19T16:35:15.418Z,53.50
2023-03-19T16:37:45.002Z,53.00
2023-03-19T16:40:11.852Z,52.90
2023-03-19T16:42:45.772Z,52.80
2023-03-19T16:45:18.471Z,52.70
2023-03-19T16:47:57.214Z,53.10
2023-03-19T16:50:30.673Z,52.90
2023-03-19T16:52:59.688Z,52.80
2023-03-19T16:55:35.561Z,52.90
2023-03-19T16:58:22.863Z,53.30
2023-03-19T17:00:49.776Z,52.80
2023-03-19T17:03:18.533Z,52.90
2023-03-19T17:05:47.039Z,53.10
2023-03-19T17:08:14.636Z,53.20
2023-03-19T17:10:45.873Z,53.40
2023-03-19T17:13:19.819Z,53.50
2023-03-19T17:15:48.494Z,53.60
2023-03-19T17:18:31.418Z,53.70
2023-03-19T17:21:04.658Z,53.90
2023-03-19T17:25:59.420Z,54.10
2023-03-19T17:28:26.293Z,54.40
2023-03-19T17:30:53.279Z,54.60
2023-03-19T17:33:29.825Z,54.80
2023-03-19T17:35:58.586Z,55.00
2023-03-19T17:38:35.450Z,55.20
2023-03-19T17:45:57.755Z,55.80
2023-03-19T17:48:26.611Z,55.90
2023-03-19T17:50:58.771Z,55.90
2023-03-19T17:53:26.957Z,55.90
2023-03-19T17:55:54.064Z,56.00
2023-03-19T17:58:22.609Z,56.10
2023-03-19T18:00:51.669Z,56.20
2023-03-19T18:03:22.110Z,56.30
2023-03-19T18:05:53.227Z,56.40
2023-03-19T18:08:23.947Z,56.50
2023-03-19T18:10:51.464Z,56.50
2023-03-19T18:18:18.923Z,56.70
2023-03-19T18:20:47.607Z,56.70
2023-03-19T18:23:18.346Z,56.80
2023-03-19T18:25:46.261Z,56.90
2023-03-19T18:28:13.359Z,57.00
2023-03-19T18:30:41.769Z,57.20
2023-03-19T18:33:16.813Z,57.30
2023-03-19T18:35:45.603Z,57.40
2023-03-19T18:38:21.589Z,57.40
2023-03-19T18:40:49.778Z,57.50
2023-03-19T18:43:17.128Z,57.50
2023-03-19T18:45:48.269Z,57.60
2023-03-19T18:48:23.266Z,57.60
2023-03-19T18:55:46.181Z,57.80
2023-03-19T18:58:20.486Z,58.00
2023-03-19T19:03:18.431Z,58.20
2023-03-19T19:05:45.911Z,58.20
2023-03-19T19:08:18.793Z,58.10
2023-03-19T19:10:53.619Z,58.10
2023-03-19T19:13:29.029Z,58.20
2023-03-19T19:18:26.226Z,58.30
2023-03-19T19:20:54.058Z,58.30
2023-03-19T19:23:22.341Z,58.50
2023-03-19T19:25:55.243Z,58.50
2023-03-19T19:28:30.551Z,58.50
2023-03-19T19:30:59.767Z,58.60
2023-03-19T19:33:34.814Z,58.70
2023-03-19T19:36:02.637Z,58.70
2023-03-19T19:38:30.461Z,58.70
2023-03-19T19:41:00.149Z,58.70
2023-03-19T19:43:31.204Z,58.70
2023-03-19T19:45:58.936Z,58.80
2023-03-19T19:48:27.892Z,58.90
2023-03-19T19:50:55.754Z,58.90
2023-03-19T19:53:29.451Z,58.90
2023-03-19T19:55:56.539Z,59.00
2023-03-19T19:58:27.632Z,59.00
2023-03-19T20:03:33.615Z,59.00
2023-03-19T20:06:01.778Z,59.10
2023-03-19T20:08:29.180Z,59.30
2023-03-19T20:10:57.025Z,59.40
2023-03-19T20:13:27.949Z,59.40
2023-03-19T20:15:57.131Z,59.40
2023-03-19T20:18:30.722Z,59.40
2023-03-19T20:25:54.943Z,59.30
2023-03-19T20:28:32.541Z,59.50
2023-03-19T20:31:00.639Z,59.60
2023-03-19T20:33:28.324Z,59.60
2023-03-19T20:35:55.520Z,59.70
2023-03-19T20:38:22.500Z,59.70
2023-03-19T20:40:52.812Z,59.70
2023-03-19T20:43:30.789Z,59.70
2023-03-19T20:45:59.728Z,59.60
2023-03-19T20:48:27.656Z,59.70
2023-03-19T20:50:55.197Z,59.70
2023-03-19T20:55:49.906Z,59.80
2023-03-19T20:58:31.543Z,59.80
2023-03-19T21:00:59.361Z,59.70
2023-03-19T21:03:28.963Z,59.70
2023-03-19T21:06:02.085Z,59.80
2023-03-19T21:08:35.012Z,59.90
2023-03-19T21:11:03.507Z,59.90
2023-03-19T21:13:31.929Z,60.00
2023-03-19T21:20:56.850Z,60.10
2023-03-19T21:23:37.263Z,60.10
2023-03-19T21:26:17.745Z,60.20
2023-03-19T21:28:46.912Z,60.40
2023-03-19T21:31:21.033Z,60.50
2023-03-19T21:36:26.136Z,60.40
2023-03-19T21:41:26.506Z,60.50
2023-03-19T21:44:00.984Z,60.50
2023-03-19T21:46:30.470Z,60.60
2023-03-19T21:48:58.728Z,60.90
2023-03-19T21:51:27.666Z,60.90
2023-03-19T21:56:24.175Z,60.60
2023-03-19T21:58:52.943Z,60.50
2023-03-19T22:01:25.031Z,60.70
2023-03-19T22:03:53.794Z,60.80
2023-03-19T22:11:21.118Z,61.00
2023-03-19T22:16:33.828Z,60.70
2023-03-19T22:21:32.851Z,60.60
2023-03-19T22:26:41.949Z,60.80
2023-03-19T22:29:14.931Z,60.80
2023-03-19T22:31:42.294Z,60.90
2023-03-19T22:34:16.730Z,61.10
2023-03-19T22:36:44.459Z,61.10
2023-03-19T22:39:11.749Z,61.50
2023-03-19T22:41:43.857Z,61.50
2023-03-19T22:44:18.492Z,61.60
2023-03-19T22:49:15.412Z,62.00
2023-03-19T22:51:43.625Z,62.20
2023-03-19T22:54:12.000Z,62.10
2023-03-19T22:59:06.063Z,62.00
2023-03-19T23:01:41.416Z,62.00
2023-03-19T23:04:23.855Z,61.80
2023-03-19T23:06:52.332Z,61.70
2023-03-19T23:09:24.641Z,61.80
2023-03-19T23:11:52.698Z,61.60
2023-03-19T23:17:15.188Z,61.60
2023-03-19T23:22:15.809Z,61.60
2023-03-19T23:27:26.173Z,61.70
2023-03-19T23:29:53.680Z,61.70
2023-03-19T23:39:56.305Z,61.80
2023-03-19T23:42:28.741Z,62.00
2023-03-19T23:44:59.368Z,62.00
2023-03-19T23:47:27.561Z,62.00
2023-03-19T23:57:17.268Z,62.50
2023-03-19T23:59:47.903Z,62.50
